Terminal Aerodrome Forecast
Issued by NWS Twin Cities, MN

Home | Current Version | Previous Version | Graphics & Text | Print | Product List | Glossary On
Versions: 1 2 3 4 5 6 7 8 9 10 11 12 13
000
FTUS43 KMPX 260520
TAFEAU
TAF
KEAU 260520Z 2606/2706 05008KT 5SM -RA BR SCT015 OVC040
     FM261100 04007KT 3SM -RA BR OVC008
     FM261800 35009KT P6SM VCSH OVC004
     FM262100 35009KT P6SM OVC008=

USA.gov is the U.S. government's official web portal to all federal, state and local government web resources and services.